Time;durP1;ratioP1;P1;durP2;ratioP2;P2;SDS_P1;SDS_P2;PMS_P1;PMS_P2;Temp;Humidity;BMP_temperature;BMP_pressure;BME280_temperature;BME280_humidity;BME280_pressure;Samples;Min_cycle;Max_cycle;Signal;HPM_P1;HPM_P2
2023/09/30 00:00:45;;;;;;;;;6.75;6.00;;;;;-143.90;96.62;75118.47;4976851;28;103146;-75
2023/09/30 00:03:12;;;;;;;;;5.50;5.50;;;;;-143.90;96.34;75128.81;4974765;28;101674;-75
2023/09/30 00:05:39;;;;;;;;;8.00;6.75;;;;;-143.90;96.65;75128.81;4971350;28;101907;-75
2023/09/30 00:08:06;;;;;;;;;6.00;5.00;;;;;-143.90;96.70;75132.94;4978737;27;107907;-73
2023/09/30 00:10:33;;;;;;;;;8.50;8.00;;;;;-143.90;96.49;75130.88;4983356;28;107313;-75
2023/09/30 00:13:00;;;;;;;;;7.00;6.75;;;;;-143.90;96.47;75135.00;4978597;28;102650;-75
2023/09/30 00:15:27;;;;;;;;;7.00;7.00;;;;;-143.90;96.60;75128.81;4981093;28;101582;-75
2023/09/30 00:17:54;;;;;;;;;10.00;7.00;;;;;-143.90;96.69;75128.81;4983691;28;101910;-75
2023/09/30 00:20:22;;;;;;;;;9.25;8.00;;;;;-143.90;97.13;75126.75;4995801;28;105101;-76
2023/09/30 00:22:49;;;;;;;;;3.75;3.75;;;;;-143.90;97.38;75130.88;4983176;28;101589;-76
2023/09/30 00:25:15;;;;;;;;;7.25;5.50;;;;;-143.90;97.05;75124.66;4982714;28;101519;-75
2023/09/30 00:27:42;;;;;;;;;6.00;6.00;;;;;-143.90;96.76;75124.66;4985878;28;102431;-75
2023/09/30 00:30:09;;;;;;;;;6.50;6.00;;;;;-143.90;96.88;75118.47;4984125;28;103625;-75
2023/09/30 00:32:36;;;;;;;;;5.00;5.00;;;;;-143.90;96.95;75122.59;4978608;28;103727;-75
2023/09/30 00:35:03;;;;;;;;;4.00;4.00;;;;;-143.90;96.49;75118.47;4977985;28;101835;-74
2023/09/30 00:37:29;;;;;;;;;4.50;4.50;;;;;-143.90;96.99;75114.34;4981433;28;101858;-75
2023/09/30 00:39:56;;;;;;;;;10.00;7.25;;;;;-143.90;96.69;75122.59;4970230;28;103268;-76
2023/09/30 00:42:23;;;;;;;;;4.00;4.00;;;;;-143.90;96.92;75104.00;4984020;28;101714;-76
2023/09/30 00:44:49;;;;;;;;;8.00;6.75;;;;;-143.90;96.52;75108.13;4982561;28;101830;-75
2023/09/30 00:47:16;;;;;;;;;5.00;4.25;;;;;-143.90;97.16;75106.06;4984000;28;102478;-75
2023/09/30 00:49:43;;;;;;;;;6.00;4.75;;;;;-143.90;97.20;75101.94;4981949;28;104755;-75
2023/09/30 00:52:10;;;;;;;;;5.00;5.00;;;;;-143.90;96.80;75106.06;4980835;28;103096;-75
2023/09/30 00:54:38;;;;;;;;;8.50;7.25;;;;;-143.90;97.01;75099.88;4983051;28;101851;-75
2023/09/30 00:57:06;;;;;;;;;4.50;4.50;;;;;-143.90;96.41;75114.34;4986230;28;101808;-75
2023/09/30 00:59:33;;;;;;;;;4.00;4.00;;;;;-143.90;97.04;75106.06;4982399;28;108466;-75
2023/09/30 01:02:00;;;;;;;;;1.00;1.00;;;;;-143.90;97.29;75116.41;4982702;28;101595;-75
2023/09/30 01:04:27;;;;;;;;;6.00;3.75;;;;;-143.90;97.74;75106.06;4980137;28;101849;-75
2023/09/30 01:06:57;;;;;;;;;4.00;3.50;;;;;-143.90;97.46;75104.00;4982847;28;101900;-76
2023/09/30 01:09:25;;;;;;;;;4.00;4.00;;;;;-143.90;96.99;75101.94;4981207;28;102831;-75
2023/09/30 01:11:52;;;;;;;;;2.00;1.00;;;;;-143.90;96.75;75099.88;4979484;28;101955;-75
2023/09/30 01:14:30;;;;;;;;;4.00;4.00;;;;;-143.90;96.74;75095.72;4980420;28;101691;-75
2023/09/30 01:16:57;;;;;;;;;4.00;4.00;;;;;-143.90;96.57;75093.66;4981122;28;101747;-75
2023/09/30 01:19:28;;;;;;;;;2.00;2.00;;;;;-143.90;97.11;75093.66;4981890;28;103790;-74
2023/09/30 01:21:59;;;;;;;;;2.50;2.50;;;;;-143.90;96.99;75093.66;4981613;28;101555;-76
2023/09/30 01:24:29;;;;;;;;;3.00;3.00;;;;;-143.90;96.73;75093.66;4974017;28;101681;-75
2023/09/30 01:26:56;;;;;;;;;4.00;4.00;;;;;-143.90;96.52;75093.66;4981023;28;102391;-76
2023/09/30 01:29:25;;;;;;;;;6.00;5.00;;;;;-143.90;96.61;75091.59;4980346;28;103428;-75
2023/09/30 01:31:53;;;;;;;;;3.00;3.00;;;;;-143.90;97.11;75089.53;4975121;28;101698;-75
2023/09/30 01:34:20;;;;;;;;;4.00;4.00;;;;;-143.90;97.38;75091.59;4980579;28;101734;-76
2023/09/30 01:36:47;;;;;;;;;4.00;4.00;;;;;-143.90;96.88;75089.53;4981935;28;102286;-76
2023/09/30 01:39:14;;;;;;;;;3.25;2.75;;;;;-143.90;97.09;75085.38;4983148;28;102873;-76
2023/09/30 01:41:41;;;;;;;;;3.25;3.25;;;;;-143.90;96.83;75093.66;4979671;28;101625;-76
2023/09/30 01:44:09;;;;;;;;;4.00;4.00;;;;;-143.90;96.94;75085.38;4979637;28;101709;-76
2023/09/30 01:46:36;;;;;;;;;4.00;4.00;;;;;-143.90;96.78;75083.31;4983888;28;101824;-75
2023/09/30 01:49:06;;;;;;;;;3.50;3.00;;;;;-143.90;96.36;75081.25;4981495;28;107718;-76
2023/09/30 01:51:32;;;;;;;;;5.75;5.00;;;;;-143.90;95.90;75081.25;4977412;28;101833;-76
2023/09/30 01:53:59;;;;;;;;;6.00;6.00;;;;;-143.90;96.09;75077.13;4980488;28;101580;-75
2023/09/30 01:56:26;;;;;;;;;4.50;4.50;;;;;-143.90;96.20;75079.19;4984516;28;101992;-76
2023/09/30 01:58:53;;;;;;;;;4.00;4.00;;;;;-143.90;95.85;75070.91;4980412;28;103362;-74
2023/09/30 02:01:21;;;;;;;;;5.00;4.00;;;;;-143.90;95.63;75064.72;4996778;28;101909;-74
2023/09/30 02:03:48;;;;;;;;;2.75;2.75;;;;;-143.90;96.45;75068.84;4992863;28;101571;-75
2023/09/30 02:06:14;;;;;;;;;5.75;4.25;;;;;-143.90;95.85;75072.97;4982302;28;101813;-74
2023/09/30 02:08:41;;;;;;;;;5.50;4.50;;;;;-143.90;96.24;75064.72;4983384;28;103510;-75
2023/09/30 02:11:08;;;;;;;;;3.00;3.00;;;;;-143.90;97.01;75064.72;4980314;28;101733;-75
2023/09/30 02:13:35;;;;;;;;;4.00;3.00;;;;;-143.90;96.85;75070.91;4986505;28;101736;-75
2023/09/30 02:16:02;;;;;;;;;4.00;4.00;;;;;-143.90;97.01;75066.78;4979000;28;101698;-75
2023/09/30 02:18:32;;;;;;;;;5.50;4.50;;;;;-143.90;96.50;75064.72;4978877;28;102934;-75
2023/09/30 02:20:59;;;;;;;;;7.00;5.00;;;;;-143.90;96.45;75064.72;4973915;28;102798;-75
2023/09/30 02:23:26;;;;;;;;;6.00;4.00;;;;;-143.90;96.62;75064.72;4982607;28;101762;-75
2023/09/30 02:25:53;;;;;;;;;5.00;5.00;;;;;-143.90;97.26;75064.72;4979777;28;102028;-75
2023/09/30 02:28:19;;;;;;;;;6.50;5.75;;;;;-143.90;96.80;75068.84;4982799;28;103554;-75
2023/09/30 02:30:46;;;;;;;;;9.00;8.00;;;;;-143.90;96.36;75070.91;4977680;28;101823;-75
2023/09/30 02:33:13;;;;;;;;;4.50;3.00;;;;;-143.90;96.74;75064.72;4977810;28;101995;-75
2023/09/30 02:35:43;;;;;;;;;4.00;4.00;;;;;-143.90;97.85;75068.84;4982714;28;102792;-75
2023/09/30 02:38:11;;;;;;;;;4.50;4.50;;;;;-143.90;97.42;75066.78;4994056;28;103362;-75
2023/09/30 02:40:38;;;;;;;;;5.00;5.00;;;;;-143.90;98.14;75058.50;4983521;27;102300;-76
2023/09/30 02:43:05;;;;;;;;;5.00;5.00;;;;;-143.90;98.05;75056.44;4980303;28;101883;-76
2023/09/30 02:45:31;;;;;;;;;4.25;4.25;;;;;-143.90;97.41;75060.59;4983698;28;102739;-76
2023/09/30 02:47:58;;;;;;;;;5.00;5.00;;;;;-143.90;97.64;75052.31;4980960;28;103636;-75
2023/09/30 02:50:25;;;;;;;;;5.00;4.25;;;;;-143.90;98.34;75056.44;4983000;28;101902;-75
2023/09/30 02:52:52;;;;;;;;;6.00;6.00;;;;;-143.90;98.77;75064.72;4985253;28;104561;-75
2023/09/30 02:55:18;;;;;;;;;11.50;11.50;;;;;-143.90;98.36;75052.31;4985157;28;101951;-76
2023/09/30 02:57:46;;;;;;;;;6.25;6.25;;;;;-143.90;98.10;75052.31;4987091;28;102949;-76
2023/09/30 03:02:53;;;;;;;;;10.25;9.00;;;;;-143.90;97.46;75046.09;4979062;28;101955;-75
2023/09/30 03:05:20;;;;;;;;;7.75;7.00;;;;;-143.90;97.27;75048.19;4980574;28;101833;-75
2023/09/30 03:07:48;;;;;;;;;5.50;5.00;;;;;-143.90;97.40;75044.03;4984539;28;102865;-75
2023/09/30 03:10:19;;;;;;;;;3.50;3.00;;;;;-143.90;98.35;75048.19;4986964;28;101494;-76
2023/09/30 03:12:47;;;;;;;;;5.00;5.00;;;;;-143.90;98.01;75033.72;4983952;28;101917;-76
2023/09/30 03:15:15;;;;;;;;;6.50;5.75;;;;;-143.90;97.73;75035.78;4988840;28;101821;-75
2023/09/30 03:17:43;;;;;;;;;7.00;7.00;;;;;-143.90;96.92;75021.31;4983561;28;105498;-76
2023/09/30 03:20:14;;;;;;;;;4.00;4.00;;;;;-143.90;97.08;75015.09;4998957;28;101924;-76
2023/09/30 03:22:42;;;;;;;;;6.00;5.00;;;;;-143.90;97.22;75013.03;4999390;28;102162;-75
2023/09/30 03:25:15;;;;;;;;;7.00;6.00;;;;;-143.90;98.11;75021.31;4984857;28;101819;-76
2023/09/30 03:27:41;;;;;;;;;8.25;7.00;;;;;-143.90;98.04;75019.22;4983519;28;102963;-76
2023/09/30 03:30:09;;;;;;;;;8.00;7.00;;;;;-143.90;97.75;75010.97;4981210;28;102086;-75
2023/09/30 03:32:38;;;;;;;;;7.50;7.00;;;;;-143.90;97.18;75006.84;4985936;28;101780;-76
2023/09/30 03:35:07;;;;;;;;;6.00;6.00;;;;;-143.90;97.04;75008.91;4988575;28;101743;-75
2023/09/30 03:37:34;;;;;;;;;6.00;5.50;;;;;-143.90;97.46;75006.84;4980044;28;107493;-76
2023/09/30 03:40:11;;;;;;;;;6.25;5.25;;;;;-143.90;97.64;75008.91;4982953;28;101845;-76
2023/09/30 03:42:39;;;;;;;;;4.75;3.75;;;;;-143.90;99.30;75010.97;4977503;28;101627;-76
2023/09/30 03:45:09;;;;;;;;;6.50;6.50;;;;;-143.90;98.85;75015.09;4988604;28;101765;-76
2023/09/30 03:47:40;;;;;;;;;7.00;6.50;;;;;-143.90;98.37;75010.97;4984082;28;107954;-76
2023/09/30 03:50:14;;;;;;;;;9.75;7.50;;;;;-143.90;97.75;75010.97;4982799;28;101848;-76
2023/09/30 03:52:45;;;;;;;;;8.00;7.00;;;;;-143.90;98.69;75013.03;4961852;28;101832;-76
2023/09/30 03:55:15;;;;;;;;;7.00;7.00;;;;;-143.90;98.44;75015.09;4984450;28;101688;-76
2023/09/30 03:57:43;;;;;;;;;6.75;6.75;;;;;-143.90;98.69;75017.16;4984104;28;104616;-76
2023/09/30 04:00:11;;;;;;;;;6.75;6.00;;;;;-143.90;98.57;75006.84;4982826;28;101896;-76
2023/09/30 04:02:38;;;;;;;;;6.00;5.00;;;;;-143.90;98.46;75010.97;4982693;28;102946;-76
2023/09/30 04:05:05;;;;;;;;;7.75;6.00;;;;;-143.90;98.67;75006.84;4986297;28;102158;-76
2023/09/30 04:07:32;;;;;;;;;7.75;4.50;;;;;-143.90;98.49;75010.97;4981143;28;103796;-76
2023/09/30 04:10:01;;;;;;;;;5.50;5.00;;;;;-143.90;98.32;75002.69;4986013;28;101529;-76
2023/09/30 04:12:28;;;;;;;;;5.00;5.00;;;;;-143.90;98.62;75004.75;4977790;28;102277;-76
2023/09/30 04:14:55;;;;;;;;;4.00;2.75;;;;;-143.90;98.90;75006.84;4982469;28;101648;-76
2023/09/30 04:17:23;;;;;;;;;2.50;2.50;;;;;-143.90;99.45;75006.84;4985596;28;103559;-76
2023/09/30 04:19:52;;;;;;;;;4.00;4.00;;;;;-143.90;98.76;75010.97;4980949;28;101946;-76
2023/09/30 04:22:21;;;;;;;;;4.25;4.25;;;;;-143.90;99.46;75019.22;4983038;28;101858;-76
2023/09/30 04:24:50;;;;;;;;;2.00;2.00;;;;;-143.90;99.86;75006.84;4980119;28;101739;-76
2023/09/30 04:27:19;;;;;;;;;4.00;4.00;;;;;-143.90;100.00;75008.91;4984748;28;103641;-76
2023/09/30 04:29:46;;;;;;;;;6.75;6.00;;;;;-143.90;100.00;75019.22;4979558;28;101665;-76
2023/09/30 04:32:13;;;;;;;;;6.50;5.00;;;;;-143.90;100.00;75029.56;4982185;28;101572;-76
2023/09/30 04:34:40;;;;;;;;;9.00;8.25;;;;;-143.90;100.00;75029.56;4983118;28;101880;-76
2023/09/30 04:37:11;;;;;;;;;7.50;6.00;;;;;-143.90;100.00;75037.84;4983190;28;104010;-75
2023/09/30 04:39:38;;;;;;;;;8.50;8.00;;;;;-143.90;100.00;75035.78;4985494;28;104857;-75
2023/09/30 04:42:05;;;;;;;;;9.00;9.00;;;;;-143.90;100.00;75031.63;4984500;28;101868;-75
2023/09/30 04:44:32;;;;;;;;;9.25;8.00;;;;;-143.90;100.00;75029.56;4985136;28;102005;-75
2023/09/30 04:47:00;;;;;;;;;12.00;11.00;;;;;-143.90;100.00;75031.63;4981982;28;104521;-75
2023/09/30 04:49:27;;;;;;;;;8.00;8.00;;;;;-143.90;100.00;75031.63;4980572;28;101978;-75
2023/09/30 04:51:53;;;;;;;;;7.00;6.25;;;;;-143.90;100.00;75023.38;4983678;28;102128;-74
2023/09/30 04:54:21;;;;;;;;;8.75;7.00;;;;;-143.90;100.00;75033.72;4982667;28;102509;-75
2023/09/30 04:56:48;;;;;;;;;7.00;6.25;;;;;-143.90;100.00;75023.38;4997775;28;103458;-75
2023/09/30 04:59:14;;;;;;;;;6.50;5.00;;;;;-143.90;100.00;75031.63;4980398;28;102374;-75
2023/09/30 05:01:41;;;;;;;;;4.25;4.25;;;;;-143.90;100.00;75025.44;4983366;28;101923;-75
2023/09/30 05:04:09;;;;;;;;;6.75;5.00;;;;;-143.90;100.00;75021.31;4986544;28;101768;-75
2023/09/30 05:06:36;;;;;;;;;4.00;4.00;;;;;-143.90;100.00;75019.22;4982961;28;108048;-75
2023/09/30 05:09:03;;;;;;;;;4.75;4.50;;;;;-143.90;100.00;75023.38;4981379;28;101979;-76
2023/09/30 05:11:31;;;;;;;;;5.00;5.00;;;;;-143.90;100.00;75023.38;4984908;28;102074;-76
2023/09/30 05:13:57;;;;;;;;;3.25;3.25;;;;;-143.90;100.00;75023.38;4994531;28;101629;-75
2023/09/30 05:16:27;;;;;;;;;3.75;3.75;;;;;-143.90;100.00;75021.31;4984174;27;102892;-75
2023/09/30 05:18:54;;;;;;;;;4.25;4.00;;;;;-143.90;100.00;75033.72;4974483;28;102422;-74
2023/09/30 05:21:21;;;;;;;;;3.25;3.25;;;;;-143.90;100.00;75023.38;4982168;28;101788;-75
2023/09/30 05:23:48;;;;;;;;;2.00;1.25;;;;;-143.90;100.00;75029.56;4980162;28;102106;-75
2023/09/30 05:26:16;;;;;;;;;3.50;3.50;;;;;-143.90;100.00;75031.63;4981335;28;103643;-75
2023/09/30 05:28:43;;;;;;;;;7.50;7.00;;;;;-143.90;100.00;75039.91;4979564;28;101778;-75
2023/09/30 05:31:10;;;;;;;;;6.00;5.50;;;;;-143.90;100.00;75039.91;4977108;28;101834;-75
2023/09/30 05:33:37;;;;;;;;;6.75;6.50;;;;;-143.90;100.00;75044.03;4979945;28;101812;-75
2023/09/30 05:36:04;;;;;;;;;5.50;5.50;;;;;-143.90;100.00;75044.03;4977550;28;108647;-76
2023/09/30 05:38:31;;;;;;;;;5.25;4.50;;;;;-143.90;100.00;75046.09;4981192;28;101722;-76
2023/09/30 05:41:01;;;;;;;;;5.50;5.50;;;;;-143.90;100.00;75046.09;4983679;28;102471;-76
2023/09/30 05:43:29;;;;;;;;;5.25;4.75;;;;;-143.90;100.00;75046.09;4979885;28;101640;-76
2023/09/30 05:45:56;;;;;;;;;4.25;4.00;;;;;-143.90;100.00;75052.31;4981573;28;103612;-76
2023/09/30 05:48:27;;;;;;;;;0.75;0.75;;;;;-143.90;100.00;75041.97;4981110;28;101861;-76
2023/09/30 05:50:54;;;;;;;;;6.00;6.00;;;;;-143.90;100.00;75033.72;4980087;28;102480;-75
2023/09/30 05:53:21;;;;;;;;;4.00;4.00;;;;;-143.90;100.00;75035.78;4980405;28;102121;-75
2023/09/30 05:55:48;;;;;;;;;7.75;7.00;;;;;-143.90;100.00;75044.03;4982873;28;103960;-75
2023/09/30 05:58:18;;;;;;;;;5.75;5.75;;;;;-143.90;100.00;75035.78;4983469;28;101881;-75
2023/09/30 06:00:45;;;;;;;;;3.50;3.50;;;;;-143.90;100.00;75031.63;4981680;28;101757;-75
2023/09/30 06:03:12;;;;;;;;;5.00;5.00;;;;;-143.90;100.00;75037.84;4993181;28;102014;-75
2023/09/30 06:05:40;;;;;;;;;3.00;3.00;;;;;-143.90;100.00;75033.72;4979413;28;103476;-75
2023/09/30 06:08:13;;;;;;;;;4.75;4.50;;;;;-143.90;100.00;75031.63;4981826;28;102650;-75
2023/09/30 06:10:42;;;;;;;;;3.50;3.50;;;;;-143.90;100.00;75031.63;4977369;28;103305;-74
2023/09/30 06:13:10;;;;;;;;;4.50;4.50;;;;;-143.90;100.00;75037.84;4983168;28;101630;-74
2023/09/30 06:15:39;;;;;;;;;7.00;5.75;;;;;-143.90;100.00;75031.63;4978734;28;103254;-74
2023/09/30 06:18:06;;;;;;;;;7.75;6.00;;;;;-143.90;100.00;75035.78;4982037;28;101693;-74
2023/09/30 06:20:33;;;;;;;;;6.00;6.00;;;;;-143.90;100.00;75031.63;4978734;28;101807;-75
2023/09/30 06:23:03;;;;;;;;;5.75;5.75;;;;;-143.90;100.00;75031.63;4979221;28;101565;-74
2023/09/30 06:25:32;;;;;;;;;6.00;5.00;;;;;-143.90;100.00;75031.63;4978501;28;103533;-74
2023/09/30 06:27:59;;;;;;;;;5.25;4.25;;;;;-143.90;100.00;75033.72;4980785;28;101581;-75
2023/09/30 06:30:29;;;;;;;;;7.25;6.25;;;;;-143.90;100.00;75025.44;4986975;27;101613;-74
2023/09/30 06:32:59;;;;;;;;;3.00;3.00;;;;;-143.90;100.00;75027.50;4988795;28;102535;-75
2023/09/30 06:35:27;;;;;;;;;3.00;3.00;;;;;-143.90;100.00;75023.38;4984623;28;103066;-75
2023/09/30 06:37:54;;;;;;;;;3.00;3.00;;;;;-143.90;100.00;75023.38;4986861;28;103283;-75
2023/09/30 06:40:20;;;;;;;;;2.75;2.75;;;;;-143.90;100.00;75015.09;4985407;28;101769;-75
2023/09/30 06:42:47;;;;;;;;;4.00;4.00;;;;;-143.90;100.00;75006.84;4982098;28;101619;-75
2023/09/30 06:45:15;;;;;;;;;4.75;4.25;;;;;-143.90;100.00;74998.56;4969578;28;104057;-74
2023/09/30 06:47:42;;;;;;;;;6.00;4.75;;;;;-143.90;100.00;74994.44;4968535;28;101634;-75
2023/09/30 06:50:12;;;;;;;;;5.25;4.00;;;;;-143.90;100.00;74990.28;4987518;28;101887;-75
2023/09/30 06:52:41;;;;;;;;;6.00;5.50;;;;;-143.90;100.00;74988.22;4983396;28;102089;-75
2023/09/30 06:55:09;;;;;;;;;5.50;4.75;;;;;-143.90;100.00;74977.88;4979319;28;107744;-74
2023/09/30 06:57:37;;;;;;;;;4.25;4.00;;;;;-143.90;100.00;74973.75;4984496;28;101563;-75
2023/09/30 07:00:11;;;;;;;;;4.75;4.75;;;;;-143.90;100.00;74969.63;4983372;28;101801;-75
2023/09/30 07:02:39;;;;;;;;;3.75;3.50;;;;;-143.90;100.00;74961.34;4979749;28;103148;-74
2023/09/30 07:05:12;;;;;;;;;4.50;3.75;;;;;-143.90;100.00;74982.03;4983927;28;107681;-75
2023/09/30 07:07:40;;;;;;;;;3.00;3.00;;;;;-143.90;100.00;74965.50;4982795;28;102425;-75
2023/09/30 07:10:08;;;;;;;;;5.50;4.00;;;;;-143.90;100.00;74953.09;4994294;28;102106;-75
2023/09/30 07:12:35;;;;;;;;;4.25;4.00;;;;;-143.90;100.00;74953.09;4978722;28;102175;-75
2023/09/30 07:15:07;;;;;;;;;4.00;3.67;;;;;-143.90;100.00;74944.81;4982308;28;103321;-75
2023/09/30 07:17:34;;;;;;;;;3.00;2.33;;;;;-143.90;100.00;74934.47;4976951;27;101621;-74
2023/09/30 07:20:02;;;;;;;;;4.00;3.67;;;;;-143.90;100.00;74932.41;4981938;28;103241;-75
2023/09/30 07:22:29;;;;;;;;;4.00;4.00;;;;;-143.90;100.00;74920.00;4979799;28;101896;-74
2023/09/30 07:24:59;;;;;;;;;4.50;3.75;;;;;-143.90;100.00;74907.59;4980980;28;104421;-76
2023/09/30 07:27:26;;;;;;;;;4.00;3.67;;;;;-143.90;100.00;74901.41;4982244;28;102138;-75
2023/09/30 07:29:54;;;;;;;;;3.25;2.75;;;;;-143.90;100.00;74905.53;4979268;28;101775;-75
2023/09/30 07:32:24;;;;;;;;;4.00;4.00;;;;;-143.90;100.00;74920.00;4978389;28;101851;-75
2023/09/30 07:34:51;;;;;;;;;4.00;3.00;;;;;-143.90;100.00;74897.25;4979651;28;102752;-75
2023/09/30 07:37:20;;;;;;;;;4.50;3.50;;;;;-143.90;100.00;74901.41;4976085;28;101914;-75
2023/09/30 07:39:47;;;;;;;;;6.50;5.50;;;;;-143.90;100.00;74907.59;4977553;28;101934;-75
2023/09/30 07:42:14;;;;;;;;;4.00;4.00;;;;;-143.90;100.00;74901.41;4979996;28;101867;-76
2023/09/30 07:44:41;;;;;;;;;5.00;5.00;;;;;-143.90;100.00;74899.34;4978188;28;103085;-75
2023/09/30 07:47:09;;;;;;;;;6.25;6.00;;;;;-143.90;100.00;74897.25;4984684;28;102952;-75
2023/09/30 07:49:38;;;;;;;;;6.75;6.00;;;;;-143.90;100.00;74917.94;4973028;28;101561;-74
2023/09/30 07:52:04;;;;;;;;;5.00;4.75;;;;;-143.90;100.00;74903.47;4980190;28;101843;-75
2023/09/30 07:54:31;;;;;;;;;4.00;4.00;;;;;-143.90;100.00;74895.19;4980479;28;103775;-76
2023/09/30 07:56:59;;;;;;;;;6.00;5.75;;;;;-143.90;100.00;74891.06;4990937;28;101986;-74
2023/09/30 07:59:27;;;;;;;;;4.00;4.00;;;;;-143.90;100.00;74891.06;4976511;28;101899;-76
2023/09/30 08:01:54;;;;;;;;;4.33;4.33;;;;;-143.90;100.00;74901.41;4977218;28;101984;-75
2023/09/30 08:04:21;;;;;;;;;4.00;4.00;;;;;-143.90;100.00;74889.00;4978852;28;102603;-75
2023/09/30 08:06:50;;;;;;;;;3.33;3.33;;;;;-143.90;100.00;74901.41;4971389;28;102604;-75
2023/09/30 08:09:18;;;;;;;;;4.67;4.67;;;;;-143.90;100.00;74876.59;4962344;28;102588;-76
2023/09/30 08:11:45;;;;;;;;;3.00;3.00;;;;;-143.90;100.00;74884.88;4960328;28;102720;-76
2023/09/30 08:14:12;;;;;;;;;3.33;3.00;;;;;-143.90;100.00;74882.78;4962677;28;103869;-74
2023/09/30 08:16:39;;;;;;;;;4.00;3.33;;;;;-143.90;100.00;74886.94;4981036;28;103495;-75
2023/09/30 08:19:05;;;;;;;;;3.00;3.00;;;;;-143.90;100.00;74882.78;4966362;28;102073;-75
2023/09/30 08:21:32;;;;;;;;;4.00;4.00;;;;;-143.90;100.00;74886.94;4972355;28;102442;-74
2023/09/30 08:23:59;;;;;;;;;3.00;3.00;;;;;-143.90;100.00;74895.19;4973573;28;105175;-75
2023/09/30 08:26:26;;;;;;;;;4.67;4.67;;;;;-143.90;100.00;74882.78;4976964;28;101736;-75
2023/09/30 08:28:53;;;;;;;;;5.00;5.00;;;;;-143.90;100.00;74889.00;4975677;28;101547;-75
2023/09/30 08:31:21;;;;;;;;;5.00;5.00;;;;;-143.90;100.00;74903.47;4979579;28;101685;-75
2023/09/30 08:33:48;;;;;;;;;5.67;4.67;;;;;-143.90;100.00;74884.88;4978070;28;103343;-75
2023/09/30 08:36:15;;;;;;;;;5.00;5.00;;;;;-143.90;100.00;74882.78;4973205;28;101990;-75
2023/09/30 08:38:42;;;;;;;;;6.00;6.00;;;;;-143.90;100.00;74870.38;4973314;28;102164;-76
2023/09/30 08:41:09;;;;;;;;;6.33;5.33;;;;;-143.90;100.00;74878.66;4976711;28;101917;-76
2023/09/30 08:43:40;;;;;;;;;5.00;4.00;;;;;-143.90;100.00;74864.19;4980132;28;102717;-76
2023/09/30 08:46:07;;;;;;;;;6.00;6.00;;;;;-143.90;100.00;74866.25;4975326;28;101599;-74
2023/09/30 08:48:35;;;;;;;;;4.33;4.33;;;;;-143.90;100.00;74853.84;4978720;28;101677;-75
2023/09/30 08:51:02;;;;;;;;;6.00;5.33;;;;;-143.90;100.00;74853.84;4975429;28;101709;-75
2023/09/30 08:53:29;;;;;;;;;4.67;4.33;;;;;-143.90;100.00;74855.91;4978405;28;103249;-75
2023/09/30 08:55:59;;;;;;;;;7.33;7.00;;;;;-143.90;100.00;74841.44;4981051;28;101716;-75
2023/09/30 08:58:28;;;;;;;;;3.00;3.00;;;;;-143.90;100.00;74831.13;4972888;28;102364;-75
2023/09/30 09:00:56;;;;;;;;;5.67;5.00;;;;;-143.90;100.00;74841.44;4973420;28;101955;-75
2023/09/30 09:03:23;;;;;;;;;5.33;5.33;;;;;-143.90;100.00;74831.13;4971321;28;104597;-75
2023/09/30 09:05:57;;;;;;;;;6.00;5.33;;;;;-143.90;100.00;74822.84;4974524;28;101920;-75
2023/09/30 09:08:26;;;;;;;;;5.67;5.67;;;;;-143.90;100.00;74818.72;4973613;28;101552;-75
2023/09/30 09:11:00;;;;;;;;;10.00;6.33;;;;;-143.90;100.00;74816.66;4994462;27;101962;-76
2023/09/30 09:13:28;;;;;;;;;7.67;6.00;;;;;-143.90;100.00;74814.56;4969026;28;102898;-76
2023/09/30 09:16:09;;;;;;;;;5.00;4.33;;;;;-143.90;100.00;74812.50;4976935;28;101837;-75
2023/09/30 09:18:37;;;;;;;;;6.33;6.33;;;;;-143.90;100.00;74820.78;4975597;28;101924;-75
2023/09/30 09:21:09;;;;;;;;;4.00;2.67;;;;;-143.90;100.00;74831.13;4980174;28;101887;-75
2023/09/30 09:23:44;;;;;;;;;5.33;5.00;;;;;-143.90;100.00;74831.13;4973123;28;104893;-76
2023/09/30 09:26:13;;;;;;;;;7.33;7.00;;;;;-143.90;100.00;74820.78;4978207;28;101573;-76
2023/09/30 09:28:44;;;;;;;;;5.33;4.67;;;;;-143.90;100.00;74824.91;4967659;28;101866;-74
2023/09/30 09:31:26;;;;;;;;;8.33;7.00;;;;;-143.90;100.00;74820.78;4976524;28;101619;-75
2023/09/30 09:33:53;;;;;;;;;7.00;6.67;;;;;-143.90;100.00;74824.91;4960097;28;107218;-75
2023/09/30 09:36:20;;;;;;;;;10.67;9.67;;;;;-143.90;100.00;74845.59;4971859;28;101835;-76
2023/09/30 09:38:53;;;;;;;;;7.33;6.33;;;;;-143.90;100.00;74853.84;4978676;28;101740;-76
2023/09/30 09:41:20;;;;;;;;;6.00;6.00;;;;;-143.90;100.00;74862.13;4977776;28;101941;-76
2023/09/30 09:43:53;;;;;;;;;6.33;6.33;;;;;-143.90;100.00;74870.38;4975033;28;104263;-75
2023/09/30 09:46:20;;;;;;;;;9.33;7.00;;;;;-143.90;100.00;74874.53;4972856;28;103207;-74
2023/09/30 09:48:47;;;;;;;;;10.33;8.33;;;;;-143.90;100.00;74878.66;4976396;28;104062;-75
2023/09/30 09:51:14;;;;;;;;;10.00;8.00;;;;;-143.90;100.00;74886.94;4980070;28;102074;-75
2023/09/30 09:53:44;;;;;;;;;8.00;7.67;;;;;-143.90;100.00;74889.00;4978769;28;103065;-75
2023/09/30 09:56:12;;;;;;;;;8.75;8.75;;;;;-143.90;100.00;74907.59;4973038;28;101953;-75
2023/09/30 09:58:42;;;;;;;;;8.00;7.00;;;;;-143.90;100.00;74913.81;4975669;28;101768;-75
2023/09/30 10:01:10;;;;;;;;;6.00;6.00;;;;;-143.90;100.00;74903.47;4980179;28;102052;-78
2023/09/30 10:03:42;;;;;;;;;8.00;8.00;;;;;-143.90;100.00;74899.34;4993235;28;103250;-75
2023/09/30 10:06:09;;;;;;;;;7.00;7.00;;;;;-143.90;100.00;74907.59;4977183;28;101454;-74
2023/09/30 10:08:45;;;;;;;;;7.00;7.00;;;;;-143.90;100.00;74922.06;4991741;28;101981;-76
2023/09/30 10:11:19;;;;;;;;;7.33;6.33;;;;;-143.90;100.00;74913.81;4977682;28;101883;-75
2023/09/30 10:14:03;;;;;;;;;10.75;8.75;;;;;-143.90;100.00;74903.47;4973827;28;107491;-75
2023/09/30 10:16:36;;;;;;;;;11.00;8.67;;;;;-143.90;100.00;74891.06;4980286;28;101787;-76
2023/09/30 10:19:15;;;;;;;;;8.25;8.25;;;;;-143.90;100.00;74882.78;4978914;28;101875;-75
2023/09/30 10:22:15;;;;;;;;;7.67;7.00;;;;;-143.90;100.00;74878.66;4980671;28;101700;-75
2023/09/30 10:24:42;;;;;;;;;8.75;8.50;;;;;-143.90;100.00;74876.59;4980846;28;109134;-76
2023/09/30 10:27:21;;;;;;;;;8.00;7.50;;;;;-143.90;100.00;74872.47;4976935;28;101557;-76
2023/09/30 10:29:54;;;;;;;;;22.00;21.00;;;;;-143.90;100.00;74878.66;4966561;28;101574;-75
2023/09/30 10:32:21;;;;;;;;;15.25;14.50;;;;;-143.90;100.00;74868.31;4970236;28;102248;-76
2023/09/30 10:34:49;;;;;;;;;10.00;10.00;;;;;-143.90;100.00;74870.38;4990351;27;103026;-75
2023/09/30 10:37:24;;;;;;;;;13.50;10.50;;;;;-143.90;100.00;74849.72;4975605;28;103961;-71
2023/09/30 10:39:58;;;;;;;;;11.00;11.00;;;;;-143.90;100.00;74839.38;4955909;28;102247;-75
2023/09/30 10:42:45;;;;;;;;;17.00;15.50;;;;;-143.90;100.00;74837.31;4967516;28;102115;-75
2023/09/30 10:45:40;;;;;;;;;13.00;12.00;;;;;-143.90;100.00;74833.19;4963090;28;108531;-75
2023/09/30 10:48:31;;;;;;;;;9.75;9.75;;;;;-143.90;100.00;74824.91;4954612;28;102189;-75
2023/09/30 10:51:14;;;;;;;;;14.25;14.25;;;;;-143.90;100.00;74829.03;4962483;28;101997;-76
2023/09/30 10:53:44;;;;;;;;;14.25;12.75;;;;;-143.90;100.00;74837.31;4965813;28;102676;-76
2023/09/30 10:56:11;;;;;;;;;12.67;11.00;;;;;-143.90;100.00;74826.97;4965068;28;105546;-75
2023/09/30 10:58:53;;;;;;;;;7.67;7.67;;;;;-143.90;100.00;74829.03;4962623;28;102153;-76
2023/09/30 11:01:22;;;;;;;;;13.00;10.00;;;;;-143.90;100.00;74829.03;4960457;28;102222;-75
2023/09/30 11:03:57;;;;;;;;;11.33;11.00;;;;;-143.90;100.00;74816.66;4976821;28;102130;-76
2023/09/30 11:06:25;;;;;;;;;12.25;12.25;;;;;-143.90;100.00;74810.44;4961893;28;103596;-75
2023/09/30 11:08:58;;;;;;;;;9.00;9.00;;;;;-143.90;100.00;74802.16;4959469;28;102055;-76
2023/09/30 11:11:37;;;;;;;;;14.00;13.25;;;;;-143.90;100.00;74804.25;4958925;28;102870;-74
2023/09/30 11:14:17;;;;;;;;;13.00;12.00;;;;;-143.90;100.00;74800.09;4960575;28;102338;-75